createdAt,value
2022-10-01T00:00:29.073Z,10.98
2022-10-01T00:02:56.129Z,8.02
2022-10-01T00:05:22.860Z,12.65
2022-10-01T00:07:50.314Z,8.25
2022-10-01T00:20:22.938Z,9.05
2022-10-01T00:22:50.207Z,11.27
2022-10-01T00:25:17.047Z,11.95
2022-10-01T00:27:47.378Z,10.38
2022-10-01T00:30:14.041Z,13.95
2022-10-01T01:08:09.213Z,16.35
2022-10-01T01:11:11.285Z,15.65
2022-10-01T01:13:55.548Z,15.80
2022-10-01T01:16:54.546Z,17.02
2022-10-01T01:44:40.423Z,10.65
2022-10-01T01:47:10.833Z,12.02
2022-10-01T01:49:39.403Z,10.05
2022-10-01T01:52:17.484Z,6.90
2022-10-01T01:55:08.341Z,7.35
2022-10-01T01:57:43.581Z,10.60
2022-10-01T02:00:12.613Z,8.20
2022-10-01T02:02:44.306Z,7.35
2022-10-01T02:05:21.009Z,7.22
2022-10-01T02:08:02.035Z,7.57
2022-10-01T02:10:44.048Z,9.48
2022-10-01T02:13:39.686Z,10.82
2022-10-01T02:16:14.924Z,11.52
2022-10-01T02:18:48.474Z,9.63
2022-10-01T02:21:31.509Z,11.40
2022-10-01T02:24:14.586Z,10.70
2022-10-01T02:26:44.645Z,10.85
2022-10-01T02:29:16.955Z,8.65
2022-10-01T02:31:47.141Z,17.35
2022-10-01T02:34:19.402Z,12.85
2022-10-01T02:36:48.742Z,10.80
2022-10-01T02:39:25.578Z,10.13
2022-10-01T02:41:55.298Z,12.63
2022-10-01T02:44:30.494Z,9.07
2022-10-01T02:47:14.076Z,8.93
2022-10-01T02:49:41.921Z,7.80
2022-10-01T02:52:31.746Z,14.93
2022-10-01T02:55:14.678Z,7.97
2022-10-01T02:57:52.351Z,13.98
2022-10-01T03:00:21.153Z,8.20
2022-10-01T03:02:49.622Z,8.27
2022-10-01T03:05:17.388Z,12.07
2022-10-01T03:07:44.955Z,9.48
2022-10-01T03:10:12.614Z,9.45
2022-10-01T03:12:45.353Z,8.80
2022-10-01T03:15:14.127Z,5.50
2022-10-01T03:17:41.548Z,7.60
2022-10-01T03:20:09.767Z,7.97
2022-10-01T03:22:37.259Z,7.03
2022-10-01T03:25:04.626Z,7.07
2022-10-01T03:27:31.945Z,5.55
2022-10-01T03:29:58.634Z,6.93
2022-10-01T03:32:26.005Z,5.32
2022-10-01T03:34:52.661Z,5.03
2022-10-01T03:37:19.892Z,5.78
2022-10-01T03:39:46.625Z,4.88
2022-10-01T03:42:14.040Z,3.35
2022-10-01T03:44:40.661Z,3.83
2022-10-01T03:47:08.153Z,3.00
2022-10-01T03:49:35.344Z,3.10
2022-10-01T03:52:04.541Z,1.50
2022-10-01T03:54:31.297Z,1.73
2022-10-01T03:56:58.806Z,1.30
2022-10-01T03:59:27.204Z,8.90
2022-10-01T04:01:54.942Z,1.40
2022-10-01T04:04:21.616Z,1.83
2022-10-01T04:06:48.935Z,1.30
2022-10-01T04:09:15.545Z,2.05
2022-10-01T04:11:42.954Z,1.58
2022-10-01T04:14:09.694Z,1.45
2022-10-01T04:16:37.352Z,3.03
2022-10-01T04:19:04.851Z,1.65
2022-10-01T04:21:32.678Z,1.00
2022-10-01T04:23:59.958Z,1.65
2022-10-01T04:26:27.386Z,1.50
2022-10-01T04:28:54.022Z,2.00
2022-10-01T04:31:27.544Z,0.65
2022-10-01T04:33:57.042Z,1.10
2022-10-01T04:36:25.435Z,0.80
2022-10-01T04:38:58.042Z,1.75
2022-10-01T04:41:31.016Z,1.33
2022-10-01T04:44:01.236Z,1.23
2022-10-01T04:46:32.074Z,1.48
2022-10-01T04:48:58.747Z,1.33
2022-10-01T04:51:26.107Z,2.25
2022-10-01T04:53:52.821Z,0.75
2022-10-01T04:56:20.124Z,1.17
2022-10-01T04:58:47.107Z,2.72
2022-10-01T05:01:14.400Z,0.60
2022-10-01T05:03:41.181Z,0.40
2022-10-01T05:06:08.545Z,2.67
2022-10-01T05:08:35.339Z,0.80
2022-10-01T05:11:03.345Z,1.38
2022-10-01T05:13:31.684Z,0.73
2022-10-01T05:15:59.364Z,2.15
2022-10-01T05:18:26.167Z,0.60
2022-10-01T05:20:53.449Z,4.78
2022-10-01T05:23:20.045Z,6.32
2022-10-01T05:25:47.641Z,1.45
2022-10-01T05:28:19.853Z,0.57
2022-10-01T05:30:48.762Z,0.68
2022-10-01T05:33:15.570Z,0.60
2022-10-01T05:35:42.828Z,0.82
2022-10-01T05:38:09.425Z,0.43
2022-10-01T05:40:36.679Z,0.85
2022-10-01T05:43:04.271Z,1.20
2022-10-01T05:45:32.623Z,2.40
2022-10-01T05:48:04.993Z,4.45
2022-10-01T05:50:35.062Z,0.60
2022-10-01T05:53:02.204Z,2.85
2022-10-01T05:55:34.688Z,0.80
2022-10-01T05:58:10.331Z,0.50
2022-10-01T06:00:38.717Z,3.90
2022-10-01T06:03:06.568Z,1.10
2022-10-01T06:05:35.551Z,0.68
2022-10-01T06:08:05.596Z,1.95
2022-10-01T06:10:33.114Z,4.75
2022-10-01T06:13:05.308Z,2.28
2022-10-01T06:15:38.109Z,2.17
2022-10-01T06:18:09.901Z,1.35
2022-10-01T06:20:38.649Z,1.88
2022-10-01T06:23:07.320Z,0.70
2022-10-01T06:25:36.694Z,3.88
2022-10-01T06:28:05.839Z,5.63
2022-10-01T06:30:36.616Z,0.82
2022-10-01T06:33:11.645Z,3.80
2022-10-01T06:35:50.501Z,5.03
2022-10-01T06:38:19.985Z,4.30
2022-10-01T06:41:01.887Z,2.03
2022-10-01T06:43:30.257Z,1.33
2022-10-01T06:46:00.720Z,4.50
2022-10-01T06:48:28.988Z,3.50
2022-10-01T06:50:56.950Z,1.75
2022-10-01T06:53:23.634Z,2.35
2022-10-01T06:55:50.978Z,1.27
2022-10-01T06:58:20.891Z,1.70
2022-10-01T07:00:49.235Z,4.53
2022-10-01T07:03:18.903Z,3.58
2022-10-01T07:05:46.538Z,1.25
2022-10-01T07:08:13.581Z,5.15
2022-10-01T07:10:41.868Z,6.50
2022-10-01T07:13:09.558Z,2.22
2022-10-01T07:15:37.559Z,1.20
2022-10-01T07:18:05.022Z,4.15
2022-10-01T07:20:35.695Z,1.08
2022-10-01T07:23:02.479Z,1.80
2022-10-01T07:25:29.918Z,4.47
2022-10-01T07:27:59.115Z,1.15
2022-10-01T07:30:27.005Z,6.57
2022-10-01T07:32:54.310Z,3.90
2022-10-01T07:35:22.473Z,2.67
2022-10-01T07:37:50.845Z,2.10
2022-10-01T07:40:19.317Z,3.40
2022-10-01T07:42:56.205Z,10.05
2022-10-01T07:45:24.581Z,5.68
2022-10-01T07:47:56.564Z,2.28
2022-10-01T07:50:26.194Z,4.85
2022-10-01T07:52:53.832Z,4.07
2022-10-01T07:55:23.226Z,3.67
2022-10-01T07:57:54.110Z,2.50
2022-10-01T08:00:23.053Z,3.30
2022-10-01T08:02:51.622Z,7.05
2022-10-01T08:05:21.653Z,5.07
2022-10-01T08:07:49.746Z,5.45
2022-10-01T08:10:18.347Z,2.72
2022-10-01T08:12:45.898Z,6.18
2022-10-01T08:15:15.417Z,3.17
2022-10-01T08:17:42.722Z,1.48
2022-10-01T08:20:12.357Z,7.03
2022-10-01T08:22:42.124Z,6.10
2022-10-01T08:25:10.315Z,2.58
2022-10-01T08:27:37.096Z,4.97
2022-10-01T08:30:05.105Z,5.20
2022-10-01T08:32:32.438Z,4.40
2022-10-01T08:35:00.187Z,7.35
2022-10-01T08:37:30.303Z,7.25
2022-10-01T08:39:57.798Z,10.35
2022-10-01T08:42:42.958Z,19.17
2022-10-01T08:45:17.771Z,4.60
2022-10-01T08:47:51.579Z,6.15
2022-10-01T08:50:32.040Z,7.32
2022-10-01T08:53:03.791Z,6.55
2022-10-01T08:55:36.708Z,9.00
2022-10-01T08:58:07.188Z,4.85
2022-10-01T09:00:38.861Z,9.07
2022-10-01T09:03:06.954Z,9.70
2022-10-01T09:05:44.520Z,6.28
2022-10-01T09:08:43.357Z,7.15
2022-10-01T09:11:38.790Z,9.57
2022-10-01T09:14:30.034Z,5.85
2022-10-01T09:17:25.592Z,9.07
2022-10-01T09:20:16.968Z,7.22
2022-10-01T09:23:15.980Z,9.40
2022-10-01T09:25:45.789Z,5.13
2022-10-01T09:28:21.349Z,7.85
2022-10-01T09:31:12.519Z,5.75
2022-10-01T09:33:48.028Z,5.53
2022-10-01T09:36:37.373Z,6.18
2022-10-01T09:39:20.054Z,6.65
2022-10-01T09:41:48.551Z,4.70
2022-10-01T09:44:28.682Z,6.68
2022-10-01T09:46:56.186Z,6.70
2022-10-01T09:49:31.529Z,10.65
2022-10-01T09:52:04.063Z,5.95
2022-10-01T09:54:55.913Z,6.03
2022-10-01T09:57:40.522Z,7.43
2022-10-01T10:00:10.511Z,8.18
2022-10-01T10:02:51.747Z,8.02
2022-10-01T10:05:38.899Z,8.27
2022-10-01T10:08:14.275Z,9.05
2022-10-01T10:10:50.987Z,14.95
2022-10-01T10:13:35.317Z,6.47
2022-10-01T10:16:27.942Z,9.98
2022-10-01T10:19:03.927Z,14.23
2022-10-01T10:21:36.515Z,13.75
2022-10-01T10:24:06.438Z,12.82
2022-10-01T10:26:38.013Z,17.33
2022-10-01T10:29:07.397Z,22.33
2022-10-01T10:31:47.911Z,19.70
2022-10-01T10:34:21.408Z,22.10
2022-10-01T10:36:49.083Z,15.65
2022-10-01T10:39:23.106Z,12.02
2022-10-01T10:41:51.620Z,14.25
2022-10-01T10:44:21.229Z,16.23
2022-10-01T10:46:50.323Z,13.65
2022-10-01T10:49:24.385Z,16.33
2022-10-01T10:51:56.433Z,15.77
2022-10-01T10:54:33.173Z,11.98
2022-10-01T10:57:03.602Z,12.90
2022-10-01T10:59:33.124Z,18.02
2022-10-01T11:02:02.354Z,11.02
2022-10-01T11:04:44.082Z,16.85
2022-10-01T11:07:13.985Z,16.13
2022-10-01T11:10:25.422Z,20.30
2022-10-01T11:13:01.801Z,17.25
2022-10-01T11:15:37.774Z,12.60
2022-10-01T11:18:25.698Z,13.40
2022-10-01T11:21:10.322Z,14.30
2022-10-01T11:23:51.489Z,16.60
2022-10-01T11:26:28.478Z,12.70
2022-10-01T11:29:18.642Z,19.30
2022-10-01T11:32:16.983Z,18.73
2022-10-01T11:35:22.058Z,20.40
2022-10-01T11:38:00.412Z,14.77
2022-10-01T11:40:42.807Z,27.55
2022-10-01T11:43:20.901Z,14.45
2022-10-01T11:45:52.191Z,19.25
2022-10-01T11:48:27.888Z,15.77
2022-10-01T11:50:59.019Z,24.10
2022-10-01T11:53:33.588Z,20.48
2022-10-01T11:56:18.975Z,22.02
2022-10-01T11:59:04.431Z,16.45
2022-10-01T12:01:47.886Z,16.60
2022-10-01T12:04:38.317Z,29.77
2022-10-01T12:07:14.128Z,30.38
2022-10-01T12:10:14.360Z,25.80
2022-10-01T12:12:59.573Z,15.07
2022-10-01T12:15:35.370Z,13.32
2022-10-01T12:18:16.280Z,12.35
2022-10-01T12:20:52.545Z,11.55
2022-10-01T12:23:28.672Z,15.20
2022-10-01T12:26:04.340Z,13.65
2022-10-01T12:28:53.606Z,18.15
2022-10-01T12:31:34.051Z,20.23
2022-10-01T12:34:22.266Z,20.67
2022-10-01T12:37:27.177Z,20.90
2022-10-01T12:40:17.716Z,25.52
2022-10-01T12:43:21.053Z,27.65
2022-10-01T12:46:02.653Z,21.92
2022-10-01T12:48:41.138Z,22.02
2022-10-01T12:51:29.658Z,22.05
2022-10-01T12:54:19.094Z,21.15
2022-10-01T12:56:57.739Z,17.00
2022-10-01T12:59:27.444Z,21.85
2022-10-01T13:02:08.107Z,27.33
2022-10-01T13:04:41.716Z,20.63
2022-10-01T13:07:49.028Z,21.75
2022-10-01T13:10:35.102Z,14.90
2022-10-01T13:13:19.150Z,14.52
2022-10-01T13:15:49.641Z,17.65
2022-10-01T13:19:03.447Z,19.73
2022-10-01T13:21:55.803Z,20.35
2022-10-01T13:24:38.676Z,29.35
2022-10-01T13:27:17.496Z,19.63
2022-10-01T13:29:59.864Z,26.65
2022-10-01T13:32:57.703Z,26.70
2022-10-01T13:35:30.402Z,22.67
2022-10-01T13:38:00.222Z,22.75
2022-10-01T13:40:35.029Z,22.55
2022-10-01T13:43:23.526Z,26.17
2022-10-01T13:45:53.335Z,22.25
2022-10-01T13:48:23.852Z,31.52
2022-10-01T13:50:57.490Z,24.98
2022-10-01T13:53:27.374Z,36.40
2022-10-01T13:55:56.645Z,23.45
2022-10-01T13:58:44.451Z,27.00
2022-10-01T14:01:23.684Z,23.10
2022-10-01T14:04:09.063Z,24.58
2022-10-01T14:06:36.148Z,32.10
2022-10-01T14:09:29.722Z,17.73
2022-10-01T14:12:22.936Z,25.40
2022-10-01T14:15:20.111Z,24.15
2022-10-01T14:17:53.077Z,22.15
2022-10-01T14:20:45.622Z,23.50
2022-10-01T14:23:16.691Z,31.17
2022-10-01T14:25:55.771Z,30.77
2022-10-01T14:28:49.276Z,20.88
2022-10-01T14:31:30.445Z,19.92
2022-10-01T14:34:10.286Z,27.67
2022-10-01T14:36:51.920Z,33.45
2022-10-01T14:39:21.823Z,17.10
2022-10-01T14:41:51.614Z,30.45
2022-10-01T14:44:26.293Z,19.58
2022-10-01T14:46:58.418Z,20.42
2022-10-01T14:49:32.506Z,21.30
2022-10-01T14:52:31.223Z,30.65
2022-10-01T14:55:13.378Z,35.05
2022-10-01T14:57:44.138Z,22.55
2022-10-01T15:00:17.475Z,20.77
2022-10-01T15:02:53.303Z,16.98
2022-10-01T15:05:31.663Z,20.17
2022-10-01T15:08:02.635Z,18.85
2022-10-01T15:10:29.323Z,27.23
2022-10-01T15:12:56.704Z,21.00
2022-10-01T15:15:50.284Z,18.15
2022-10-01T15:18:18.820Z,22.67
2022-10-01T15:20:58.665Z,20.23
2022-10-01T15:23:28.724Z,21.48
2022-10-01T15:25:57.951Z,17.27
2022-10-01T15:28:33.181Z,13.82
2022-10-01T15:31:05.179Z,15.60
2022-10-01T15:33:38.322Z,23.98
2022-10-01T15:36:07.306Z,27.30
2022-10-01T15:38:35.216Z,22.88
2022-10-01T15:41:26.634Z,17.90
2022-10-01T15:43:51.692Z,16.83
2022-10-01T15:46:32.831Z,19.67
2022-10-01T15:49:21.187Z,14.13
2022-10-01T15:52:24.729Z,38.42
2022-10-01T15:54:58.977Z,13.10
2022-10-01T15:57:28.314Z,16.00
2022-10-01T15:59:56.537Z,17.13
2022-10-01T16:02:30.845Z,17.58
2022-10-01T16:05:05.948Z,18.65
2022-10-01T16:07:35.082Z,16.48
2022-10-01T16:10:15.581Z,24.40
2022-10-01T16:12:42.560Z,23.58
2022-10-01T16:15:24.968Z,24.05
2022-10-01T16:17:59.851Z,24.77
2022-10-01T16:20:32.724Z,13.40
2022-10-01T16:23:40.995Z,19.83
2022-10-01T16:26:29.500Z,41.38
2022-10-01T16:29:19.461Z,41.47
2022-10-01T16:31:46.671Z,29.75
2022-10-01T16:34:16.253Z,21.02
2022-10-01T16:36:43.947Z,31.70
2022-10-01T16:39:15.801Z,22.10
2022-10-01T16:41:56.554Z,21.30
2022-10-01T16:44:37.560Z,19.67
2022-10-01T16:47:04.253Z,27.02
2022-10-01T16:49:31.533Z,22.98
2022-10-01T16:51:58.112Z,26.00
2022-10-01T16:54:26.876Z,36.13
2022-10-01T16:56:55.113Z,28.67
2022-10-01T16:59:23.848Z,17.67
2022-10-01T17:01:54.543Z,13.38
2022-10-01T17:04:23.201Z,12.90
2022-10-01T17:06:50.097Z,18.48
2022-10-01T17:09:17.005Z,16.35
2022-10-01T17:11:43.857Z,16.60
2022-10-01T17:14:16.957Z,14.00
2022-10-01T17:16:45.154Z,23.35
2022-10-01T17:19:13.452Z,28.50
2022-10-01T17:21:40.612Z,26.27
2022-10-01T17:24:11.062Z,29.20
2022-10-01T17:26:42.484Z,28.85
2022-10-01T17:29:10.362Z,30.13
2022-10-01T17:31:38.456Z,23.83
2022-10-01T17:34:05.834Z,30.67
2022-10-01T17:36:35.044Z,23.00
2022-10-01T17:39:02.243Z,33.03
2022-10-01T17:41:29.571Z,20.77
2022-10-01T17:43:58.211Z,19.10
2022-10-01T17:46:24.822Z,22.08
2022-10-01T17:48:52.508Z,26.20
2022-10-01T17:51:19.752Z,22.50
2022-10-01T17:53:47.740Z,21.67
2022-10-01T17:56:17.892Z,18.85
2022-10-01T17:58:46.029Z,22.80
2022-10-01T18:01:16.728Z,20.40
2022-10-01T18:03:43.641Z,32.30
2022-10-01T18:06:14.466Z,18.55
2022-10-01T18:08:54.606Z,22.75
2022-10-01T18:11:24.346Z,29.50
2022-10-01T18:13:52.050Z,27.63
2022-10-01T18:16:20.021Z,19.50
2022-10-01T18:21:35.547Z,25.25
2022-10-01T18:24:35.804Z,28.58
2022-10-01T18:27:02.497Z,18.50
2022-10-01T18:29:29.652Z,25.17
2022-10-01T18:32:09.779Z,16.75
2022-10-01T18:34:48.172Z,22.50
2022-10-01T18:37:46.604Z,19.98
2022-10-01T19:57:58.642Z,38.30
2022-10-01T20:00:26.142Z,24.92
2022-10-01T20:03:11.258Z,27.75
2022-10-01T20:05:58.525Z,28.02
2022-10-01T20:08:28.750Z,25.50
2022-10-01T20:11:05.881Z,30.02
2022-10-01T20:14:03.217Z,37.22
2022-10-01T20:16:47.340Z,27.98
2022-10-01T20:19:19.710Z,36.80
2022-10-01T20:22:10.222Z,30.88
2022-10-01T20:24:59.222Z,31.77
2022-10-01T20:27:49.059Z,30.20
2022-10-01T20:30:22.106Z,44.45
2022-10-01T20:33:07.687Z,47.47
2022-10-01T20:35:43.900Z,65.93
2022-10-01T20:38:24.063Z,56.15
2022-10-01T20:40:55.766Z,54.92
2022-10-01T20:43:34.528Z,54.95
2022-10-01T20:46:19.956Z,34.70
2022-10-01T20:48:53.298Z,30.88
2022-10-01T20:51:40.405Z,34.90
2022-10-01T20:54:21.699Z,29.65
2022-10-01T20:57:04.423Z,36.38
2022-10-01T20:59:36.706Z,41.53
2022-10-01T21:02:18.855Z,37.67
2022-10-01T21:04:54.095Z,26.70
2022-10-01T21:07:36.369Z,35.90
2022-10-01T21:10:15.027Z,38.45
2022-10-01T21:12:49.848Z,32.15
2022-10-01T21:15:16.789Z,35.15
2022-10-01T21:17:56.472Z,30.45
2022-10-01T21:20:41.850Z,28.23
2022-10-01T21:23:27.717Z,35.17
2022-10-01T21:26:09.016Z,31.67
2022-10-01T21:28:45.608Z,26.77
2022-10-01T21:32:04.005Z,30.70
2022-10-01T21:35:12.001Z,26.08
2022-10-01T21:37:42.749Z,31.73
2022-10-01T21:40:40.881Z,30.20
2022-10-01T21:43:22.373Z,32.55
2022-10-01T21:46:05.547Z,24.13
2022-10-01T21:48:54.797Z,34.17
2022-10-01T21:52:03.781Z,28.17
2022-10-01T21:55:09.599Z,28.70
2022-10-01T21:58:01.902Z,30.02
2022-10-01T22:00:30.827Z,32.53
2022-10-01T22:03:18.958Z,28.05
2022-10-01T22:06:27.626Z,28.23
2022-10-01T22:09:16.623Z,28.27
2022-10-01T22:11:51.238Z,26.48
2022-10-01T22:14:20.561Z,29.55
2022-10-01T22:16:57.606Z,31.33
2022-10-01T22:19:37.455Z,32.63
2022-10-01T22:22:25.847Z,30.60
2022-10-01T22:24:54.316Z,37.90
2022-10-01T22:27:31.328Z,27.58
2022-10-01T22:30:00.927Z,35.17
2022-10-01T22:32:35.287Z,27.02
2022-10-01T22:35:08.403Z,32.25
2022-10-01T22:37:49.570Z,28.15
2022-10-01T22:40:39.231Z,24.20
2022-10-01T22:43:11.294Z,37.85
2022-10-01T22:46:01.809Z,32.38
2022-10-01T22:48:48.896Z,33.00
2022-10-01T22:51:46.756Z,34.47
2022-10-01T22:54:21.389Z,35.58
2022-10-01T22:57:01.748Z,34.47
2022-10-01T23:00:03.007Z,32.40
2022-10-01T23:02:41.547Z,37.28
2022-10-01T23:05:43.129Z,35.97
2022-10-01T23:08:48.334Z,33.55
2022-10-01T23:11:29.954Z,38.30
2022-10-01T23:14:26.418Z,39.90
2022-10-01T23:17:04.050Z,42.42
2022-10-01T23:19:53.782Z,43.25
2022-10-01T23:22:51.842Z,44.58
2022-10-01T23:25:29.073Z,41.88
2022-10-01T23:28:16.624Z,52.85
2022-10-01T23:31:07.067Z,49.00
2022-10-01T23:33:52.476Z,43.00
2022-10-01T23:36:41.478Z,42.67
2022-10-01T23:39:26.042Z,52.88
2022-10-01T23:42:35.130Z,46.33
2022-10-01T23:45:32.578Z,41.70
2022-10-01T23:48:08.636Z,51.97
2022-10-01T23:50:51.987Z,46.72
2022-10-01T23:54:07.792Z,43.20
2022-10-01T23:56:49.569Z,42.47
2022-10-01T23:59:33.357Z,43.92
